sensor_id;sensor_type;location;lat;lon;timestamp;P1;durP1;ratioP1;P2;durP2;ratioP2
1412;SDS011;701;52.526;13.408;2023-10-08T00:01:15;12.23;;;1.92;;
1412;SDS011;701;52.526;13.408;2023-10-08T00:03:42;10.02;;;1.60;;
1412;SDS011;701;52.526;13.408;2023-10-08T00:06:14;5.93;;;1.70;;
1412;SDS011;701;52.526;13.408;2023-10-08T00:08:41;8.30;;;1.60;;
1412;SDS011;701;52.526;13.408;2023-10-08T00:11:06;9.60;;;1.70;;
1412;SDS011;701;52.526;13.408;2023-10-08T00:13:35;10.43;;;1.80;;
1412;SDS011;701;52.526;13.408;2023-10-08T00:16:13;8.38;;;1.75;;
1412;SDS011;701;52.526;13.408;2023-10-08T00:18:43;6.43;;;1.50;;
1412;SDS011;701;52.526;13.408;2023-10-08T00:21:20;6.45;;;1.70;;
1412;SDS011;701;52.526;13.408;2023-10-08T00:23:52;8.90;;;1.60;;
1412;SDS011;701;52.526;13.408;2023-10-08T00:26:25;10.05;;;1.75;;
1412;SDS011;701;52.526;13.408;2023-10-08T00:29:04;9.75;;;2.00;;
1412;SDS011;701;52.526;13.408;2023-10-08T00:31:57;5.28;;;1.85;;
1412;SDS011;701;52.526;13.408;2023-10-08T00:34:23;10.13;;;2.00;;
1412;SDS011;701;52.526;13.408;2023-10-08T00:36:50;13.63;;;1.85;;
1412;SDS011;701;52.526;13.408;2023-10-08T00:39:16;5.97;;;1.20;;
1412;SDS011;701;52.526;13.408;2023-10-08T00:41:50;8.13;;;1.80;;
1412;SDS011;701;52.526;13.408;2023-10-08T00:44:23;11.25;;;2.15;;
1412;SDS011;701;52.526;13.408;2023-10-08T00:46:54;11.93;;;1.73;;
1412;SDS011;701;52.526;13.408;2023-10-08T00:49:29;10.18;;;1.90;;
1412;SDS011;701;52.526;13.408;2023-10-08T00:52:08;9.48;;;2.13;;
1412;SDS011;701;52.526;13.408;2023-10-08T00:54:36;5.93;;;1.67;;
1412;SDS011;701;52.526;13.408;2023-10-08T00:57:22;6.07;;;1.52;;
1412;SDS011;701;52.526;13.408;2023-10-08T00:59:53;7.88;;;1.52;;
1412;SDS011;701;52.526;13.408;2023-10-08T01:02:20;5.60;;;1.70;;
1412;SDS011;701;52.526;13.408;2023-10-08T01:05:15;10.30;;;1.98;;
1412;SDS011;701;52.526;13.408;2023-10-08T01:07:51;10.60;;;1.80;;
1412;SDS011;701;52.526;13.408;2023-10-08T01:10:20;7.03;;;1.55;;
1412;SDS011;701;52.526;13.408;2023-10-08T01:12:49;7.75;;;1.90;;
1412;SDS011;701;52.526;13.408;2023-10-08T01:15:36;10.52;;;2.30;;
1412;SDS011;701;52.526;13.408;2023-10-08T01:18:03;8.93;;;1.80;;
1412;SDS011;701;52.526;13.408;2023-10-08T01:20:29;12.35;;;2.17;;
1412;SDS011;701;52.526;13.408;2023-10-08T01:23:00;7.00;;;2.00;;
1412;SDS011;701;52.526;13.408;2023-10-08T01:25:28;9.02;;;1.70;;
1412;SDS011;701;52.526;13.408;2023-10-08T01:27:56;8.98;;;2.17;;
1412;SDS011;701;52.526;13.408;2023-10-08T01:30:26;12.73;;;2.35;;
1412;SDS011;701;52.526;13.408;2023-10-08T01:32:52;7.47;;;1.92;;
1412;SDS011;701;52.526;13.408;2023-10-08T01:35:18;12.60;;;2.60;;
1412;SDS011;701;52.526;13.408;2023-10-08T01:37:54;11.77;;;2.30;;
1412;SDS011;701;52.526;13.408;2023-10-08T01:40:21;10.63;;;2.17;;
1412;SDS011;701;52.526;13.408;2023-10-08T01:42:50;10.97;;;2.00;;
1412;SDS011;701;52.526;13.408;2023-10-08T01:45:16;10.30;;;1.83;;
1412;SDS011;701;52.526;13.408;2023-10-08T01:47:45;12.40;;;1.92;;
1412;SDS011;701;52.526;13.408;2023-10-08T01:50:16;12.55;;;1.77;;
1412;SDS011;701;52.526;13.408;2023-10-08T01:52:53;9.90;;;1.60;;
1412;SDS011;701;52.526;13.408;2023-10-08T01:55:19;7.47;;;1.47;;
1412;SDS011;701;52.526;13.408;2023-10-08T01:57:45;7.47;;;2.00;;
1412;SDS011;701;52.526;13.408;2023-10-08T02:00:12;7.22;;;1.58;;
1412;SDS011;701;52.526;13.408;2023-10-08T02:02:46;7.88;;;1.70;;
1412;SDS011;701;52.526;13.408;2023-10-08T02:05:12;7.65;;;2.10;;
1412;SDS011;701;52.526;13.408;2023-10-08T02:07:41;11.15;;;1.95;;
1412;SDS011;701;52.526;13.408;2023-10-08T02:10:10;14.23;;;2.00;;
1412;SDS011;701;52.526;13.408;2023-10-08T02:12:37;12.75;;;2.38;;
1412;SDS011;701;52.526;13.408;2023-10-08T02:15:04;8.68;;;2.30;;
1412;SDS011;701;52.526;13.408;2023-10-08T02:17:32;13.13;;;2.40;;
1412;SDS011;701;52.526;13.408;2023-10-08T02:19:58;9.18;;;2.75;;
1412;SDS011;701;52.526;13.408;2023-10-08T02:22:24;11.20;;;2.45;;
1412;SDS011;701;52.526;13.408;2023-10-08T02:24:50;12.85;;;2.22;;
1412;SDS011;701;52.526;13.408;2023-10-08T02:27:18;11.30;;;2.72;;
1412;SDS011;701;52.526;13.408;2023-10-08T02:29:44;13.73;;;2.50;;
1412;SDS011;701;52.526;13.408;2023-10-08T02:32:10;14.77;;;2.60;;
1412;SDS011;701;52.526;13.408;2023-10-08T02:34:36;12.05;;;2.97;;
1412;SDS011;701;52.526;13.408;2023-10-08T02:37:02;9.40;;;2.63;;
1412;SDS011;701;52.526;13.408;2023-10-08T02:39:30;12.73;;;2.40;;
1412;SDS011;701;52.526;13.408;2023-10-08T02:41:57;17.58;;;3.08;;
1412;SDS011;701;52.526;13.408;2023-10-08T02:44:25;13.95;;;3.30;;
1412;SDS011;701;52.526;13.408;2023-10-08T02:46:51;12.45;;;3.22;;
1412;SDS011;701;52.526;13.408;2023-10-08T02:49:20;12.30;;;3.17;;
1412;SDS011;701;52.526;13.408;2023-10-08T02:51:51;13.15;;;3.20;;
1412;SDS011;701;52.526;13.408;2023-10-08T02:54:21;18.13;;;3.40;;
1412;SDS011;701;52.526;13.408;2023-10-08T02:56:57;11.55;;;2.92;;
1412;SDS011;701;52.526;13.408;2023-10-08T02:59:30;11.38;;;3.33;;
1412;SDS011;701;52.526;13.408;2023-10-08T03:02:09;19.63;;;3.88;;
1412;SDS011;701;52.526;13.408;2023-10-08T03:04:47;12.02;;;3.30;;
1412;SDS011;701;52.526;13.408;2023-10-08T03:07:17;18.15;;;3.30;;
1412;SDS011;701;52.526;13.408;2023-10-08T03:09:58;14.02;;;3.08;;
1412;SDS011;701;52.526;13.408;2023-10-08T03:12:34;13.43;;;2.92;;
1412;SDS011;701;52.526;13.408;2023-10-08T03:15:02;13.27;;;3.03;;
1412;SDS011;701;52.526;13.408;2023-10-08T03:17:37;12.13;;;3.30;;
1412;SDS011;701;52.526;13.408;2023-10-08T03:20:19;10.68;;;2.70;;
1412;SDS011;701;52.526;13.408;2023-10-08T03:23:05;9.38;;;2.67;;
1412;SDS011;701;52.526;13.408;2023-10-08T03:25:54;16.30;;;3.45;;
1412;SDS011;701;52.526;13.408;2023-10-08T03:28:37;9.55;;;2.92;;
1412;SDS011;701;52.526;13.408;2023-10-08T03:31:06;11.93;;;2.95;;
1412;SDS011;701;52.526;13.408;2023-10-08T03:33:39;16.20;;;4.10;;
1412;SDS011;701;52.526;13.408;2023-10-08T03:36:08;15.60;;;2.97;;
1412;SDS011;701;52.526;13.408;2023-10-08T03:38:55;10.40;;;3.17;;
1412;SDS011;701;52.526;13.408;2023-10-08T03:41:23;11.82;;;3.40;;
1412;SDS011;701;52.526;13.408;2023-10-08T03:43:56;16.05;;;3.78;;
1412;SDS011;701;52.526;13.408;2023-10-08T03:46:31;11.23;;;2.80;;
1412;SDS011;701;52.526;13.408;2023-10-08T03:49:04;8.88;;;2.85;;
1412;SDS011;701;52.526;13.408;2023-10-08T03:51:37;15.18;;;3.20;;
1412;SDS011;701;52.526;13.408;2023-10-08T03:54:06;11.60;;;3.28;;
1412;SDS011;701;52.526;13.408;2023-10-08T03:56:35;11.43;;;3.45;;
1412;SDS011;701;52.526;13.408;2023-10-08T03:59:04;13.30;;;3.00;;
1412;SDS011;701;52.526;13.408;2023-10-08T04:01:41;14.52;;;3.28;;
1412;SDS011;701;52.526;13.408;2023-10-08T04:04:07;10.05;;;2.83;;
1412;SDS011;701;52.526;13.408;2023-10-08T04:06:40;8.15;;;2.70;;
1412;SDS011;701;52.526;13.408;2023-10-08T04:09:15;9.95;;;2.83;;
1412;SDS011;701;52.526;13.408;2023-10-08T04:11:44;12.73;;;3.13;;
1412;SDS011;701;52.526;13.408;2023-10-08T04:14:22;18.08;;;2.78;;
1412;SDS011;701;52.526;13.408;2023-10-08T04:16:49;11.10;;;3.15;;
1412;SDS011;701;52.526;13.408;2023-10-08T04:19:17;7.80;;;2.40;;
1412;SDS011;701;52.526;13.408;2023-10-08T04:21:52;16.55;;;3.05;;
1412;SDS011;701;52.526;13.408;2023-10-08T04:24:25;12.38;;;2.40;;
1412;SDS011;701;52.526;13.408;2023-10-08T04:26:59;9.80;;;2.97;;
1412;SDS011;701;52.526;13.408;2023-10-08T04:29:30;15.07;;;2.70;;
1412;SDS011;701;52.526;13.408;2023-10-08T04:31:58;12.07;;;2.80;;
1412;SDS011;701;52.526;13.408;2023-10-08T04:34:33;10.52;;;2.72;;
1412;SDS011;701;52.526;13.408;2023-10-08T04:36:59;10.13;;;2.38;;
1412;SDS011;701;52.526;13.408;2023-10-08T04:39:29;10.77;;;3.13;;
1412;SDS011;701;52.526;13.408;2023-10-08T04:42:02;12.32;;;3.08;;
1412;SDS011;701;52.526;13.408;2023-10-08T04:44:35;14.65;;;3.03;;
1412;SDS011;701;52.526;13.408;2023-10-08T04:47:04;14.18;;;3.13;;
1412;SDS011;701;52.526;13.408;2023-10-08T04:49:31;11.50;;;2.72;;
1412;SDS011;701;52.526;13.408;2023-10-08T04:52:05;10.45;;;2.90;;
1412;SDS011;701;52.526;13.408;2023-10-08T04:54:40;14.02;;;3.13;;
1412;SDS011;701;52.526;13.408;2023-10-08T04:57:11;14.15;;;2.78;;
1412;SDS011;701;52.526;13.408;2023-10-08T04:59:43;13.07;;;3.10;;
1412;SDS011;701;52.526;13.408;2023-10-08T05:02:09;11.25;;;3.05;;
1412;SDS011;701;52.526;13.408;2023-10-08T05:04:39;14.57;;;3.05;;
1412;SDS011;701;52.526;13.408;2023-10-08T05:07:31;16.75;;;3.00;;
1412;SDS011;701;52.526;13.408;2023-10-08T05:10:12;12.77;;;3.00;;
1412;SDS011;701;52.526;13.408;2023-10-08T05:12:51;7.88;;;2.40;;
1412;SDS011;701;52.526;13.408;2023-10-08T05:15:30;7.70;;;2.10;;
1412;SDS011;701;52.526;13.408;2023-10-08T05:18:23;7.22;;;2.58;;
1412;SDS011;701;52.526;13.408;2023-10-08T05:21:03;10.45;;;2.70;;
1412;SDS011;701;52.526;13.408;2023-10-08T05:23:48;11.48;;;2.83;;
1412;SDS011;701;52.526;13.408;2023-10-08T05:26:33;9.52;;;2.92;;
1412;SDS011;701;52.526;13.408;2023-10-08T05:29:07;11.93;;;3.08;;
1412;SDS011;701;52.526;13.408;2023-10-08T05:31:53;11.57;;;2.42;;
1412;SDS011;701;52.526;13.408;2023-10-08T05:34:38;11.02;;;2.88;;
1412;SDS011;701;52.526;13.408;2023-10-08T05:37:30;12.80;;;2.97;;
1412;SDS011;701;52.526;13.408;2023-10-08T05:40:06;10.75;;;2.58;;
1412;SDS011;701;52.526;13.408;2023-10-08T05:42:58;9.93;;;2.95;;
1412;SDS011;701;52.526;13.408;2023-10-08T05:45:38;17.20;;;3.40;;
1412;SDS011;701;52.526;13.408;2023-10-08T05:48:17;19.58;;;3.00;;
1412;SDS011;701;52.526;13.408;2023-10-08T05:50:52;11.40;;;2.97;;
1412;SDS011;701;52.526;13.408;2023-10-08T05:53:37;9.73;;;3.40;;
1412;SDS011;701;52.526;13.408;2023-10-08T05:56:09;8.65;;;2.70;;
1412;SDS011;701;52.526;13.408;2023-10-08T05:58:53;11.88;;;3.17;;
1412;SDS011;701;52.526;13.408;2023-10-08T06:01:39;12.35;;;2.85;;
1412;SDS011;701;52.526;13.408;2023-10-08T06:04:06;13.30;;;3.30;;
1412;SDS011;701;52.526;13.408;2023-10-08T06:07:07;9.77;;;2.80;;
1412;SDS011;701;52.526;13.408;2023-10-08T06:09:48;15.00;;;3.22;;
1412;SDS011;701;52.526;13.408;2023-10-08T06:12:27;10.10;;;2.80;;
1412;SDS011;701;52.526;13.408;2023-10-08T06:15:04;14.40;;;2.90;;
1412;SDS011;701;52.526;13.408;2023-10-08T06:17:34;11.38;;;2.83;;
1412;SDS011;701;52.526;13.408;2023-10-08T06:20:19;11.63;;;2.97;;
1412;SDS011;701;52.526;13.408;2023-10-08T06:22:50;15.07;;;3.60;;
1412;SDS011;701;52.526;13.408;2023-10-08T06:25:19;15.00;;;3.65;;
1412;SDS011;701;52.526;13.408;2023-10-08T06:27:50;9.20;;;3.60;;
1412;SDS011;701;52.526;13.408;2023-10-08T06:30:21;10.90;;;3.50;;
1412;SDS011;701;52.526;13.408;2023-10-08T06:32:49;17.40;;;6.10;;
1412;SDS011;701;52.526;13.408;2023-10-08T06:35:15;15.45;;;3.72;;
1412;SDS011;701;52.526;13.408;2023-10-08T06:37:47;15.15;;;3.70;;
1412;SDS011;701;52.526;13.408;2023-10-08T06:40:20;11.85;;;3.15;;
1412;SDS011;701;52.526;13.408;2023-10-08T06:43:18;12.95;;;2.97;;
1412;SDS011;701;52.526;13.408;2023-10-08T06:45:49;12.52;;;3.20;;
1412;SDS011;701;52.526;13.408;2023-10-08T06:48:19;14.93;;;3.20;;
1412;SDS011;701;52.526;13.408;2023-10-08T06:50:46;13.98;;;3.08;;
1412;SDS011;701;52.526;13.408;2023-10-08T06:53:13;11.10;;;2.70;;
1412;SDS011;701;52.526;13.408;2023-10-08T06:55:39;9.38;;;2.38;;
1412;SDS011;701;52.526;13.408;2023-10-08T06:58:08;10.23;;;2.20;;
1412;SDS011;701;52.526;13.408;2023-10-08T07:00:36;10.73;;;2.50;;
1412;SDS011;701;52.526;13.408;2023-10-08T07:03:11;8.65;;;2.00;;
1412;SDS011;701;52.526;13.408;2023-10-08T07:05:42;11.30;;;2.53;;
1412;SDS011;701;52.526;13.408;2023-10-08T07:08:12;7.95;;;2.10;;
1412;SDS011;701;52.526;13.408;2023-10-08T07:10:40;6.90;;;1.67;;
1412;SDS011;701;52.526;13.408;2023-10-08T07:13:07;6.82;;;2.00;;
1412;SDS011;701;52.526;13.408;2023-10-08T07:15:33;7.88;;;1.80;;
1412;SDS011;701;52.526;13.408;2023-10-08T07:18:04;7.88;;;1.92;;
1412;SDS011;701;52.526;13.408;2023-10-08T07:20:35;6.13;;;1.70;;
1412;SDS011;701;52.526;13.408;2023-10-08T07:23:07;8.10;;;2.38;;
1412;SDS011;701;52.526;13.408;2023-10-08T07:25:56;7.90;;;1.65;;
1412;SDS011;701;52.526;13.408;2023-10-08T07:28:41;7.72;;;1.73;;
1412;SDS011;701;52.526;13.408;2023-10-08T07:31:14;6.72;;;1.50;;
1412;SDS011;701;52.526;13.408;2023-10-08T07:33:41;11.10;;;1.70;;
1412;SDS011;701;52.526;13.408;2023-10-08T07:36:11;7.30;;;2.00;;
1412;SDS011;701;52.526;13.408;2023-10-08T07:38:40;8.88;;;1.85;;
1412;SDS011;701;52.526;13.408;2023-10-08T07:41:10;7.57;;;1.90;;
1412;SDS011;701;52.526;13.408;2023-10-08T07:43:44;8.15;;;1.90;;
1412;SDS011;701;52.526;13.408;2023-10-08T07:46:26;7.43;;;1.70;;
1412;SDS011;701;52.526;13.408;2023-10-08T07:48:52;9.23;;;1.80;;
1412;SDS011;701;52.526;13.408;2023-10-08T07:51:19;8.18;;;1.55;;
1412;SDS011;701;52.526;13.408;2023-10-08T07:53:51;6.03;;;1.67;;
1412;SDS011;701;52.526;13.408;2023-10-08T07:56:21;9.70;;;1.52;;
1412;SDS011;701;52.526;13.408;2023-10-08T07:58:48;6.82;;;1.73;;
1412;SDS011;701;52.526;13.408;2023-10-08T08:01:15;4.43;;;1.40;;
1412;SDS011;701;52.526;13.408;2023-10-08T08:03:40;8.70;;;1.60;;
1412;SDS011;701;52.526;13.408;2023-10-08T08:06:07;7.72;;;2.13;;
1412;SDS011;701;52.526;13.408;2023-10-08T08:08:37;7.40;;;1.60;;
1412;SDS011;701;52.526;13.408;2023-10-08T08:11:04;5.10;;;1.40;;
1412;SDS011;701;52.526;13.408;2023-10-08T08:13:37;5.27;;;1.07;;
1412;SDS011;701;52.526;13.408;2023-10-08T08:16:07;7.18;;;1.30;;
1412;SDS011;701;52.526;13.408;2023-10-08T08:18:46;8.32;;;1.25;;
1412;SDS011;701;52.526;13.408;2023-10-08T08:21:14;5.25;;;1.10;;
1412;SDS011;701;52.526;13.408;2023-10-08T08:23:46;3.70;;;1.05;;
1412;SDS011;701;52.526;13.408;2023-10-08T08:26:22;6.60;;;1.87;;
1412;SDS011;701;52.526;13.408;2023-10-08T08:28:53;5.85;;;1.33;;
1412;SDS011;701;52.526;13.408;2023-10-08T08:31:25;7.10;;;1.50;;
1412;SDS011;701;52.526;13.408;2023-10-08T08:33:52;4.88;;;1.10;;
1412;SDS011;701;52.526;13.408;2023-10-08T08:36:21;6.03;;;1.20;;
1412;SDS011;701;52.526;13.408;2023-10-08T08:38:54;4.37;;;1.10;;
1412;SDS011;701;52.526;13.408;2023-10-08T08:41:20;4.50;;;1.08;;
1412;SDS011;701;52.526;13.408;2023-10-08T08:43:49;6.47;;;1.30;;
1412;SDS011;701;52.526;13.408;2023-10-08T08:46:24;7.00;;;1.00;;
1412;SDS011;701;52.526;13.408;2023-10-08T08:49:04;5.70;;;1.10;;
1412;SDS011;701;52.526;13.408;2023-10-08T08:51:33;4.97;;;1.00;;
1412;SDS011;701;52.526;13.408;2023-10-08T08:54:00;4.40;;;0.95;;
1412;SDS011;701;52.526;13.408;2023-10-08T08:56:33;6.07;;;0.90;;
1412;SDS011;701;52.526;13.408;2023-10-08T08:59:06;5.70;;;0.90;;
1412;SDS011;701;52.526;13.408;2023-10-08T09:01:37;5.53;;;0.88;;
1412;SDS011;701;52.526;13.408;2023-10-08T09:04:04;4.30;;;0.80;;
1412;SDS011;701;52.526;13.408;2023-10-08T09:06:32;6.32;;;1.20;;
1412;SDS011;701;52.526;13.408;2023-10-08T09:08:59;4.15;;;0.93;;
1412;SDS011;701;52.526;13.408;2023-10-08T09:11:44;3.78;;;0.90;;
1412;SDS011;701;52.526;13.408;2023-10-08T09:14:10;5.13;;;1.43;;
1412;SDS011;701;52.526;13.408;2023-10-08T09:16:36;3.97;;;0.90;;
1412;SDS011;701;52.526;13.408;2023-10-08T09:19:02;3.70;;;0.90;;
1412;SDS011;701;52.526;13.408;2023-10-08T09:21:29;5.63;;;1.00;;
1412;SDS011;701;52.526;13.408;2023-10-08T09:23:55;6.73;;;1.20;;
1412;SDS011;701;52.526;13.408;2023-10-08T09:26:24;10.02;;;0.90;;
1412;SDS011;701;52.526;13.408;2023-10-08T09:28:52;9.68;;;0.70;;
1412;SDS011;701;52.526;13.408;2023-10-08T09:31:18;3.83;;;0.70;;
1412;SDS011;701;52.526;13.408;2023-10-08T09:33:55;4.70;;;0.70;;
1412;SDS011;701;52.526;13.408;2023-10-08T09:36:21;6.32;;;1.38;;
1412;SDS011;701;52.526;13.408;2023-10-08T09:39:00;4.60;;;1.00;;
1412;SDS011;701;52.526;13.408;2023-10-08T09:41:29;5.20;;;0.85;;
1412;SDS011;701;52.526;13.408;2023-10-08T09:43:58;4.75;;;0.80;;
1412;SDS011;701;52.526;13.408;2023-10-08T09:46:28;3.93;;;1.00;;
1412;SDS011;701;52.526;13.408;2023-10-08T09:48:59;4.40;;;0.70;;
1412;SDS011;701;52.526;13.408;2023-10-08T09:51:29;3.60;;;0.80;;
1412;SDS011;701;52.526;13.408;2023-10-08T09:54:15;3.63;;;0.70;;
1412;SDS011;701;52.526;13.408;2023-10-08T09:56:47;6.90;;;0.80;;
1412;SDS011;701;52.526;13.408;2023-10-08T09:59:13;4.67;;;1.23;;
1412;SDS011;701;52.526;13.408;2023-10-08T10:01:41;4.13;;;0.88;;
1412;SDS011;701;52.526;13.408;2023-10-08T10:04:09;4.10;;;0.95;;
1412;SDS011;701;52.526;13.408;2023-10-08T10:06:38;3.25;;;0.65;;
1412;SDS011;701;52.526;13.408;2023-10-08T10:09:08;3.03;;;0.80;;
1412;SDS011;701;52.526;13.408;2023-10-08T10:11:45;3.17;;;0.60;;
1412;SDS011;701;52.526;13.408;2023-10-08T10:14:14;3.30;;;0.70;;
1412;SDS011;701;52.526;13.408;2023-10-08T10:16:40;3.58;;;0.70;;
1412;SDS011;701;52.526;13.408;2023-10-08T10:19:06;4.03;;;0.70;;
1412;SDS011;701;52.526;13.408;2023-10-08T10:21:43;3.50;;;0.70;;
1412;SDS011;701;52.526;13.408;2023-10-08T10:24:23;3.85;;;0.70;;
1412;SDS011;701;52.526;13.408;2023-10-08T10:27:12;3.97;;;0.90;;
1412;SDS011;701;52.526;13.408;2023-10-08T10:29:42;4.10;;;0.90;;
1412;SDS011;701;52.526;13.408;2023-10-08T10:32:12;3.40;;;0.80;;
1412;SDS011;701;52.526;13.408;2023-10-08T10:34:40;3.03;;;0.67;;
1412;SDS011;701;52.526;13.408;2023-10-08T10:37:12;3.78;;;0.60;;
1412;SDS011;701;52.526;13.408;2023-10-08T10:39:57;3.03;;;0.63;;
1412;SDS011;701;52.526;13.408;2023-10-08T10:42:26;3.03;;;0.60;;
1412;SDS011;701;52.526;13.408;2023-10-08T10:44:53;3.58;;;0.60;;
1412;SDS011;701;52.526;13.408;2023-10-08T10:47:21;3.60;;;1.10;;
1412;SDS011;701;52.526;13.408;2023-10-08T10:49:50;2.90;;;0.70;;
1412;SDS011;701;52.526;13.408;2023-10-08T10:52:26;3.55;;;0.63;;
1412;SDS011;701;52.526;13.408;2023-10-08T10:55:17;3.75;;;0.85;;
1412;SDS011;701;52.526;13.408;2023-10-08T10:57:49;3.23;;;0.70;;
1412;SDS011;701;52.526;13.408;2023-10-08T11:00:21;5.10;;;0.93;;
1412;SDS011;701;52.526;13.408;2023-10-08T11:02:57;3.47;;;0.88;;
1412;SDS011;701;52.526;13.408;2023-10-08T11:05:50;3.08;;;0.60;;
1412;SDS011;701;52.526;13.408;2023-10-08T11:08:20;3.90;;;1.00;;
1412;SDS011;701;52.526;13.408;2023-10-08T11:10:49;3.50;;;0.60;;
1412;SDS011;701;52.526;13.408;2023-10-08T11:13:19;4.22;;;1.10;;
1412;SDS011;701;52.526;13.408;2023-10-08T11:15:47;4.00;;;0.88;;
1412;SDS011;701;52.526;13.408;2023-10-08T11:18:18;4.43;;;0.80;;
1412;SDS011;701;52.526;13.408;2023-10-08T11:20:46;3.97;;;0.77;;
1412;SDS011;701;52.526;13.408;2023-10-08T11:23:41;3.40;;;0.73;;
1412;SDS011;701;52.526;13.408;2023-10-08T11:26:24;3.70;;;0.70;;
1412;SDS011;701;52.526;13.408;2023-10-08T11:29:00;3.65;;;0.90;;
1412;SDS011;701;52.526;13.408;2023-10-08T11:31:28;3.72;;;0.82;;
1412;SDS011;701;52.526;13.408;2023-10-08T11:33:58;5.10;;;1.40;;
1412;SDS011;701;52.526;13.408;2023-10-08T11:36:33;4.20;;;0.70;;
1412;SDS011;701;52.526;13.408;2023-10-08T11:39:13;4.28;;;0.80;;
1412;SDS011;701;52.526;13.408;2023-10-08T11:44:22;4.25;;;0.82;;
1412;SDS011;701;52.526;13.408;2023-10-08T11:46:49;3.40;;;0.80;;
1412;SDS011;701;52.526;13.408;2023-10-08T11:49:17;5.83;;;0.80;;
1412;SDS011;701;52.526;13.408;2023-10-08T11:51:44;4.53;;;0.70;;
1412;SDS011;701;52.526;13.408;2023-10-08T11:54:11;4.78;;;1.10;;
1412;SDS011;701;52.526;13.408;2023-10-08T11:56:37;3.30;;;0.80;;
1412;SDS011;701;52.526;13.408;2023-10-08T11:59:04;3.22;;;0.80;;
1412;SDS011;701;52.526;13.408;2023-10-08T12:01:37;4.27;;;0.73;;
1412;SDS011;701;52.526;13.408;2023-10-08T12:04:07;4.05;;;1.00;;
1412;SDS011;701;52.526;13.408;2023-10-08T12:06:41;5.95;;;0.70;;
1412;SDS011;701;52.526;13.408;2023-10-08T12:09:17;5.75;;;0.80;;
1412;SDS011;701;52.526;13.408;2023-10-08T12:11:49;3.53;;;0.98;;
1412;SDS011;701;52.526;13.408;2023-10-08T12:14:16;3.90;;;0.80;;
1412;SDS011;701;52.526;13.408;2023-10-08T12:16:42;5.40;;;0.90;;
1412;SDS011;701;52.526;13.408;2023-10-08T12:19:10;4.10;;;0.80;;
1412;SDS011;701;52.526;13.408;2023-10-08T12:21:46;3.67;;;0.70;;
1412;SDS011;701;52.526;13.408;2023-10-08T12:24:12;4.78;;;0.73;;
1412;SDS011;701;52.526;13.408;2023-10-08T12:26:38;4.87;;;0.80;;
1412;SDS011;701;52.526;13.408;2023-10-08T12:29:11;2.90;;;0.70;;
1412;SDS011;701;52.526;13.408;2023-10-08T12:31:39;4.05;;;1.00;;
1412;SDS011;701;52.526;13.408;2023-10-08T12:34:05;3.90;;;0.90;;
1412;SDS011;701;52.526;13.408;2023-10-08T12:36:31;7.05;;;0.77;;
1412;SDS011;701;52.526;13.408;2023-10-08T12:39:01;4.23;;;0.90;;
1412;SDS011;701;52.526;13.408;2023-10-08T12:41:34;4.07;;;0.90;;
1412;SDS011;701;52.526;13.408;2023-10-08T12:44:03;3.45;;;0.70;;
1412;SDS011;701;52.526;13.408;2023-10-08T12:46:33;3.55;;;0.90;;
1412;SDS011;701;52.526;13.408;2023-10-08T12:48:59;6.13;;;0.95;;
1412;SDS011;701;52.526;13.408;2023-10-08T12:51:26;4.00;;;1.10;;
1412;SDS011;701;52.526;13.408;2023-10-08T12:53:57;4.30;;;1.25;;
1412;SDS011;701;52.526;13.408;2023-10-08T12:56:24;4.32;;;1.05;;
1412;SDS011;701;52.526;13.408;2023-10-08T12:58:57;3.60;;;0.90;;
1412;SDS011;701;52.526;13.408;2023-10-08T13:01:23;4.00;;;0.90;;
1412;SDS011;701;52.526;13.408;2023-10-08T13:03:54;3.30;;;0.70;;
1412;SDS011;701;52.526;13.408;2023-10-08T13:06:25;4.68;;;0.90;;
1412;SDS011;701;52.526;13.408;2023-10-08T13:08:55;3.67;;;0.80;;
1412;SDS011;701;52.526;13.408;2023-10-08T13:11:22;4.03;;;0.93;;
1412;SDS011;701;52.526;13.408;2023-10-08T13:13:50;2.90;;;0.60;;
1412;SDS011;701;52.526;13.408;2023-10-08T13:16:21;4.77;;;0.80;;
1412;SDS011;701;52.526;13.408;2023-10-08T13:18:51;4.43;;;0.90;;
1412;SDS011;701;52.526;13.408;2023-10-08T13:21:17;3.30;;;0.82;;
1412;SDS011;701;52.526;13.408;2023-10-08T13:23:50;3.55;;;0.90;;
1412;SDS011;701;52.526;13.408;2023-10-08T13:26:18;2.97;;;0.60;;
1412;SDS011;701;52.526;13.408;2023-10-08T13:28:48;2.80;;;0.70;;
1412;SDS011;701;52.526;13.408;2023-10-08T13:31:14;4.13;;;1.00;;
1412;SDS011;701;52.526;13.408;2023-10-08T13:33:41;3.63;;;1.00;;
1412;SDS011;701;52.526;13.408;2023-10-08T13:36:10;4.10;;;0.98;;
1412;SDS011;701;52.526;13.408;2023-10-08T13:38:36;3.70;;;0.73;;
1412;SDS011;701;52.526;13.408;2023-10-08T13:41:06;3.93;;;0.97;;
1412;SDS011;701;52.526;13.408;2023-10-08T13:43:40;3.38;;;0.75;;
1412;SDS011;701;52.526;13.408;2023-10-08T13:46:11;4.30;;;1.00;;
1412;SDS011;701;52.526;13.408;2023-10-08T13:48:38;18.13;;;6.45;;
1412;SDS011;701;52.526;13.408;2023-10-08T13:51:06;4.95;;;1.33;;
1412;SDS011;701;52.526;13.408;2023-10-08T13:53:39;3.57;;;0.90;;
1412;SDS011;701;52.526;13.408;2023-10-08T13:56:17;3.63;;;0.98;;
1412;SDS011;701;52.526;13.408;2023-10-08T13:58:44;4.00;;;0.70;;
1412;SDS011;701;52.526;13.408;2023-10-08T14:01:15;4.88;;;0.80;;
1412;SDS011;701;52.526;13.408;2023-10-08T14:03:45;3.55;;;0.80;;
1412;SDS011;701;52.526;13.408;2023-10-08T14:06:12;3.70;;;0.90;;
1412;SDS011;701;52.526;13.408;2023-10-08T14:08:39;5.70;;;0.90;;
1412;SDS011;701;52.526;13.408;2023-10-08T14:11:04;3.53;;;0.80;;
1412;SDS011;701;52.526;13.408;2023-10-08T14:13:31;3.63;;;0.80;;
1412;SDS011;701;52.526;13.408;2023-10-08T14:15:58;3.60;;;0.80;;
1412;SDS011;701;52.526;13.408;2023-10-08T14:18:24;3.45;;;0.90;;
1412;SDS011;701;52.526;13.408;2023-10-08T14:20:54;4.05;;;0.90;;
1412;SDS011;701;52.526;13.408;2023-10-08T14:23:23;6.40;;;0.90;;
1412;SDS011;701;52.526;13.408;2023-10-08T14:25:50;3.92;;;1.00;;
1412;SDS011;701;52.526;13.408;2023-10-08T14:28:20;4.32;;;0.73;;
1412;SDS011;701;52.526;13.408;2023-10-08T14:31:05;3.78;;;0.90;;
1412;SDS011;701;52.526;13.408;2023-10-08T14:33:40;4.60;;;1.13;;
1412;SDS011;701;52.526;13.408;2023-10-08T14:36:09;7.30;;;1.10;;
1412;SDS011;701;52.526;13.408;2023-10-08T14:38:53;4.20;;;0.85;;
1412;SDS011;701;52.526;13.408;2023-10-08T14:41:38;4.30;;;1.10;;
1412;SDS011;701;52.526;13.408;2023-10-08T14:44:30;5.57;;;0.80;;
1412;SDS011;701;52.526;13.408;2023-10-08T14:46:56;5.63;;;0.87;;
1412;SDS011;701;52.526;13.408;2023-10-08T14:49:21;3.20;;;0.70;;
1412;SDS011;701;52.526;13.408;2023-10-08T14:51:48;4.60;;;0.70;;
1412;SDS011;701;52.526;13.408;2023-10-08T14:54:14;4.43;;;0.80;;
1412;SDS011;701;52.526;13.408;2023-10-08T14:56:40;4.53;;;0.97;;
1412;SDS011;701;52.526;13.408;2023-10-08T14:59:06;5.55;;;1.20;;
1412;SDS011;701;52.526;13.408;2023-10-08T15:01:32;5.60;;;1.00;;
1412;SDS011;701;52.526;13.408;2023-10-08T15:03:59;3.90;;;1.08;;
1412;SDS011;701;52.526;13.408;2023-10-08T15:06:30;4.50;;;0.88;;
1412;SDS011;701;52.526;13.408;2023-10-08T15:08:56;3.38;;;0.70;;
1412;SDS011;701;52.526;13.408;2023-10-08T15:11:23;3.80;;;1.00;;
1412;SDS011;701;52.526;13.408;2023-10-08T15:13:52;4.97;;;0.87;;
1412;SDS011;701;52.526;13.408;2023-10-08T15:16:19;4.07;;;1.00;;
1412;SDS011;701;52.526;13.408;2023-10-08T15:18:49;4.00;;;0.90;;
1412;SDS011;701;52.526;13.408;2023-10-08T15:21:16;4.70;;;0.90;;
1412;SDS011;701;52.526;13.408;2023-10-08T15:23:43;3.28;;;0.70;;
1412;SDS011;701;52.526;13.408;2023-10-08T15:26:10;6.13;;;1.40;;
1412;SDS011;701;52.526;13.408;2023-10-08T15:28:40;4.93;;;1.10;;
1412;SDS011;701;52.526;13.408;2023-10-08T15:31:06;4.55;;;0.90;;
1412;SDS011;701;52.526;13.408;2023-10-08T15:33:32;5.78;;;1.33;;
1412;SDS011;701;52.526;13.408;2023-10-08T15:35:58;4.90;;;1.20;;
1412;SDS011;701;52.526;13.408;2023-10-08T15:38:25;5.07;;;1.10;;
1412;SDS011;701;52.526;13.408;2023-10-08T15:40:51;3.85;;;0.95;;